Time;durP1;ratioP1;P1;durP2;ratioP2;P2;SDS_P1;SDS_P2;PMS_P1;PMS_P2;Temp;Humidity;BMP_temperature;BMP_pressure;BME280_temperature;BME280_humidity;BME280_pressure;Samples;Min_cycle;Max_cycle;Signal;HPM_P1;HPM_P2
2021/12/01 00:00:48;;;;;;;24.00;16.92;;;;;;;;;;5066033;28;20090;-30
2021/12/01 00:03:14;;;;;;;23.55;16.35;;;;;;;;;;5066004;28;20033;-33
2021/12/01 00:05:39;;;;;;;25.58;17.33;;;;;;;;;;5065540;28;20028;-32
2021/12/01 00:08:05;;;;;;;23.05;16.45;;;;;;;;;;5066046;28;20024;-32
2021/12/01 00:10:34;;;;;;;23.40;15.85;;;;;;;;;;5065775;28;20588;-31
2021/12/01 00:13:00;;;;;;;22.48;14.88;;;;;;;;;;5039296;28;20084;-32
2021/12/01 00:15:25;;;;;;;22.23;15.32;;;;;;;;;;5045552;28;20108;-33
2021/12/01 00:17:51;;;;;;;20.20;14.93;;;;;;;;;;5045645;28;20388;-28
2021/12/01 00:20:17;;;;;;;19.75;14.70;;;;;;;;;;5045643;28;20093;-30
2021/12/01 00:22:43;;;;;;;19.40;13.73;;;;;;;;;;5045458;28;20025;-28
2021/12/01 00:25:10;;;;;;;20.83;14.50;;;;;;;;;;5046127;28;20039;-31
2021/12/01 00:27:35;;;;;;;18.67;13.65;;;;;;;;;;5045222;28;20422;-33
2021/12/01 00:30:01;;;;;;;18.58;13.20;;;;;;;;;;5045147;28;20036;-29
2021/12/01 00:32:26;;;;;;;17.92;13.18;;;;;;;;;;5045178;28;20025;-28
2021/12/01 00:34:53;;;;;;;20.70;13.82;;;;;;;;;;5045090;28;20115;-31
2021/12/01 00:37:19;;;;;;;16.52;12.50;;;;;;;;;;5045617;28;20044;-33
2021/12/01 00:39:45;;;;;;;17.60;11.80;;;;;;;;;;5044964;28;20025;-30
2021/12/01 00:42:11;;;;;;;20.02;13.20;;;;;;;;;;5045223;28;20387;-30
2021/12/01 00:44:44;;;;;;;18.27;12.68;;;;;;;;;;5027563;28;20024;-28
2021/12/01 00:47:12;;;;;;;;;;;;;;;;;;5045616;28;20033;-28
2021/12/01 00:49:37;;;;;;;17.00;11.75;;;;;;;;;;5044775;28;19920;-28
2021/12/01 00:52:03;;;;;;;17.10;11.77;;;;;;;;;;5045211;28;20031;-32
2021/12/01 00:54:28;;;;;;;16.38;11.30;;;;;;;;;;5044856;28;20206;-30
2021/12/01 00:56:54;;;;;;;17.33;11.70;;;;;;;;;;5045072;28;20036;-29
2021/12/01 00:59:19;;;;;;;15.07;10.90;;;;;;;;;;5027067;28;20626;-29
2021/12/01 01:01:45;;;;;;;13.48;10.30;;;;;;;;;;5044903;28;20033;-30
2021/12/01 01:04:11;;;;;;;16.15;10.07;;;;;;;;;;5044871;28;20485;-29
2021/12/01 01:06:37;;;;;;;14.55;10.27;;;;;;;;;;5056640;28;20167;-31
2021/12/01 01:09:05;;;;;;;13.68;9.50;;;;;;;;;;5081577;28;20028;-30
2021/12/01 01:17:06;;;;;;;12.70;9.30;;;;;;;;;;5064803;28;20035;-30
2021/12/01 01:19:33;;;;;;;13.25;9.23;;;;;;;;;;5064326;28;20032;-30
2021/12/01 01:22:00;;;;;;;13.13;9.07;;;;;;;;;;5068817;28;20036;-31
2021/12/01 01:24:25;;;;;;;12.15;8.85;;;;;;;;;;5063864;28;20024;-30
2021/12/01 01:26:51;;;;;;;13.20;9.38;;;;;;;;;;5063222;28;20052;-32
2021/12/01 01:29:21;;;;;;;14.40;8.88;;;;;;;;;;5064800;28;20090;-32
2021/12/01 01:31:47;;;;;;;10.68;8.02;;;;;;;;;;5064554;28;20451;-28
2021/12/01 01:34:12;;;;;;;13.18;8.63;;;;;;;;;;5064011;28;20024;-31
2021/12/01 01:36:38;;;;;;;12.45;8.95;;;;;;;;;;5064262;28;20814;-32
2021/12/01 01:39:04;;;;;;;12.05;8.55;;;;;;;;;;5064609;28;20025;-31
2021/12/01 01:41:30;;;;;;;11.15;7.50;;;;;;;;;;5064327;28;20029;-31
2021/12/01 01:43:55;;;;;;;12.27;7.95;;;;;;;;;;5064006;28;20151;-31
2021/12/01 01:46:21;;;;;;;10.55;7.57;;;;;;;;;;5063754;28;20068;-32
2021/12/01 01:49:05;;;;;;;9.98;7.15;;;;;;;;;;5063791;28;20029;-29
2021/12/01 01:51:30;;;;;;;9.15;7.00;;;;;;;;;;5064322;28;20025;-30
2021/12/01 01:53:57;;;;;;;11.55;7.57;;;;;;;;;;5062725;28;20028;-32
2021/12/01 01:56:22;;;;;;;9.57;7.05;;;;;;;;;;5063937;28;20059;-32
2021/12/01 01:58:48;;;;;;;11.25;7.03;;;;;;;;;;5063586;28;20593;-35
2021/12/01 02:02:01;;;;;;;9.90;7.07;;;;;;;;;;5063581;28;20024;-30
2021/12/01 02:04:00;;;;;;;10.52;7.47;;;;;;;;;;5056505;28;20029;-29
2021/12/01 02:06:26;;;;;;;8.85;6.18;;;;;;;;;;5063938;28;20114;-31
2021/12/01 02:08:53;;;;;;;8.68;6.10;;;;;;;;;;5064072;28;20246;-34
2021/12/01 02:11:19;;;;;;;8.82;6.20;;;;;;;;;;5064153;28;20021;-33
2021/12/01 02:13:45;;;;;;;10.40;6.90;;;;;;;;;;5063801;28;20027;-30
2021/12/01 02:16:11;;;;;;;9.25;6.38;;;;;;;;;;5063911;28;20509;-32
2021/12/01 02:18:37;;;;;;;7.68;5.70;;;;;;;;;;5064081;28;20024;-27
2021/12/01 02:21:11;;;;;;;8.85;6.38;;;;;;;;;;5063615;28;20104;-28
2021/12/01 02:23:37;;;;;;;8.77;5.50;;;;;;;;;;5063770;28;20031;-29
2021/12/01 02:26:03;;;;;;;8.88;6.50;;;;;;;;;;5045292;28;20036;-34
2021/12/01 02:28:30;;;;;;;7.25;5.40;;;;;;;;;;5054915;28;20045;-30
2021/12/01 02:30:56;;;;;;;8.60;5.68;;;;;;;;;;5043710;28;20079;-35
2021/12/01 02:33:21;;;;;;;7.55;5.22;;;;;;;;;;5043812;28;20053;-28
2021/12/01 02:35:47;;;;;;;7.75;4.93;;;;;;;;;;5043534;28;20029;-31
2021/12/01 02:38:12;;;;;;;7.35;5.65;;;;;;;;;;5046319;28;20032;-30
2021/12/01 02:40:38;;;;;;;8.63;5.28;;;;;;;;;;5047250;28;20025;-27
2021/12/01 02:43:03;;;;;;;6.45;4.95;;;;;;;;;;5047582;28;20029;-32
2021/12/01 02:45:29;;;;;;;7.30;5.50;;;;;;;;;;5047173;28;20417;-31
2021/12/01 02:47:54;;;;;;;6.90;5.13;;;;;;;;;;5047223;28;20032;-28
2021/12/01 02:50:20;;;;;;;9.05;4.97;;;;;;;;;;5047284;28;20025;-31
2021/12/01 02:52:46;;;;;;;6.93;5.18;;;;;;;;;;5047018;28;20025;-29
2021/12/01 02:55:15;;;;;;;6.90;5.15;;;;;;;;;;5047607;28;20021;-30
2021/12/01 02:57:50;;;;;;;5.60;4.68;;;;;;;;;;5047008;28;20021;-31
2021/12/01 03:00:17;;;;;;;5.55;4.53;;;;;;;;;;5047435;28;20498;-31
2021/12/01 03:02:42;;;;;;;6.32;4.57;;;;;;;;;;5046723;28;20465;-34
2021/12/01 03:05:08;;;;;;;4.68;4.00;;;;;;;;;;5047337;28;20025;-30
2021/12/01 03:07:34;;;;;;;5.82;4.20;;;;;;;;;;5045601;28;20036;-30
2021/12/01 03:09:59;;;;;;;6.07;4.28;;;;;;;;;;5046664;28;20517;-30
2021/12/01 03:12:29;;;;;;;6.22;4.30;;;;;;;;;;5046754;28;20020;-30
2021/12/01 03:14:55;;;;;;;5.93;4.40;;;;;;;;;;5046669;28;20025;-32
2021/12/01 03:17:20;;;;;;;5.72;4.30;;;;;;;;;;5046833;28;20025;-30
2021/12/01 03:19:46;;;;;;;6.32;4.20;;;;;;;;;;5046531;28;20036;-31
2021/12/01 03:22:13;;;;;;;4.90;3.90;;;;;;;;;;5046715;28;20029;-35
2021/12/01 03:24:39;;;;;;;5.25;4.07;;;;;;;;;;5055746;28;20545;-32
2021/12/01 03:27:05;;;;;;;5.40;4.28;;;;;;;;;;5066150;28;20136;-30
2021/12/01 03:29:30;;;;;;;5.65;3.72;;;;;;;;;;5066643;28;20104;-29
2021/12/01 03:31:56;;;;;;;4.47;3.45;;;;;;;;;;5066371;28;20016;-28
2021/12/01 03:34:22;;;;;;;4.82;3.72;;;;;;;;;;5066448;28;20043;-33
2021/12/01 03:36:48;;;;;;;4.78;3.70;;;;;;;;;;5048736;28;20059;-27
2021/12/01 03:39:13;;;;;;;4.50;3.42;;;;;;;;;;5066141;28;20092;-33
2021/12/01 03:41:39;;;;;;;4.68;3.30;;;;;;;;;;5066219;28;20024;-32
2021/12/01 03:44:05;;;;;;;3.97;3.25;;;;;;;;;;5066156;28;20990;-29
2021/12/01 03:46:30;;;;;;;4.10;3.10;;;;;;;;;;5066093;28;20020;-34
2021/12/01 03:48:56;;;;;;;3.83;3.17;;;;;;;;;;5065249;28;20493;-32
2021/12/01 03:51:22;;;;;;;4.38;3.28;;;;;;;;;;5066010;28;20154;-30
2021/12/01 03:53:48;;;;;;;5.45;3.50;;;;;;;;;;5065843;28;20074;-31
2021/12/01 03:56:13;;;;;;;4.60;3.28;;;;;;;;;;5065627;28;20474;-34
2021/12/01 03:58:39;;;;;;;3.70;2.85;;;;;;;;;;5065828;28;20024;-32
2021/12/01 04:01:05;;;;;;;7.45;2.58;;;;;;;;;;5065910;28;20434;-32
2021/12/01 04:03:30;;;;;;;3.78;2.90;;;;;;;;;;5066211;28;20067;-29
2021/12/01 04:05:56;;;;;;;4.00;3.03;;;;;;;;;;5066094;28;20070;-29
2021/12/01 04:08:21;;;;;;;4.45;2.88;;;;;;;;;;5066396;28;20028;-28
2021/12/01 04:10:47;;;;;;;5.32;2.85;;;;;;;;;;5065744;28;20103;-30
2021/12/01 04:13:13;;;;;;;3.17;2.67;;;;;;;;;;5066304;28;20124;-32
2021/12/01 04:15:38;;;;;;;2.97;2.40;;;;;;;;;;5066133;28;20396;-31
2021/12/01 04:18:04;;;;;;;3.65;2.60;;;;;;;;;;5065581;28;20036;-28
2021/12/01 04:20:29;;;;;;;3.38;2.63;;;;;;;;;;5065674;28;20016;-31
2021/12/01 04:22:55;;;;;;;4.10;2.95;;;;;;;;;;5065360;28;20031;-29
2021/12/01 04:25:21;;;;;;;5.03;2.75;;;;;;;;;;5064672;28;20032;-35
2021/12/01 04:27:46;;;;;;;2.78;2.33;;;;;;;;;;5064970;28;20528;-30
2021/12/01 04:30:13;;;;;;;3.55;2.53;;;;;;;;;;5065202;28;20166;-30
2021/12/01 04:32:39;;;;;;;3.80;2.33;;;;;;;;;;5065175;28;20024;-36
2021/12/01 04:35:05;;;;;;;3.75;2.60;;;;;;;;;;5065477;28;20021;-32
2021/12/01 04:37:30;;;;;;;3.92;2.70;;;;;;;;;;5065662;28;20036;-32
2021/12/01 04:39:56;;;;;;;3.80;2.65;;;;;;;;;;5065803;28;20466;-29
2021/12/01 04:42:22;;;;;;;3.53;2.20;;;;;;;;;;5065681;28;20061;-31
2021/12/01 04:44:47;;;;;;;2.58;2.03;;;;;;;;;;5065400;28;20066;-34
2021/12/01 04:47:15;;;;;;;3.83;2.20;;;;;;;;;;5065319;28;20036;-33
2021/12/01 04:49:40;;;;;;;2.92;2.10;;;;;;;;;;5065271;28;20024;-32
2021/12/01 04:52:07;;;;;;;5.05;2.35;;;;;;;;;;5048533;28;20041;-31
2021/12/01 04:54:34;;;;;;;2.90;2.10;;;;;;;;;;5058374;28;20016;-34
2021/12/01 04:57:00;;;;;;;2.67;2.00;;;;;;;;;;5065259;28;20490;-30
2021/12/01 04:59:26;;;;;;;2.53;2.03;;;;;;;;;;5047501;28;20032;-29
2021/12/01 05:01:56;;;;;;;2.60;2.25;;;;;;;;;;5065122;28;20025;-33
2021/12/01 05:04:21;;;;;;;2.47;2.00;;;;;;;;;;5065458;28;20042;-33
2021/12/01 05:06:47;;;;;;;2.97;2.13;;;;;;;;;;5061009;28;20025;-31
2021/12/01 05:09:12;;;;;;;3.05;2.13;;;;;;;;;;5065239;28;20048;-28
2021/12/01 05:11:38;;;;;;;3.15;2.03;;;;;;;;;;5065482;28;20299;-33
2021/12/01 05:14:04;;;;;;;2.92;2.00;;;;;;;;;;5079266;28;20058;-30
2021/12/01 05:16:29;;;;;;;4.88;2.42;;;;;;;;;;5084988;28;20090;-32
2021/12/01 05:18:55;;;;;;;2.97;2.10;;;;;;;;;;5078833;28;20100;-32
2021/12/01 05:21:20;;;;;;;7.03;2.10;;;;;;;;;;5057378;28;20028;-30
2021/12/01 05:23:46;;;;;;;6.10;2.00;;;;;;;;;;5063658;28;20040;-32
2021/12/01 05:26:12;;;;;;;5.72;1.67;;;;;;;;;;5064704;28;20047;-32
2021/12/01 05:28:38;;;;;;;5.78;1.80;;;;;;;;;;5064825;28;20485;-37
2021/12/01 05:31:04;;;;;;;5.45;1.90;;;;;;;;;;5064983;28;20037;-33
2021/12/01 05:33:29;;;;;;;7.38;1.80;;;;;;;;;;5065026;28;20441;-34
2021/12/01 05:35:55;;;;;;;7.47;1.70;;;;;;;;;;5064648;28;20032;-34
2021/12/01 05:38:21;;;;;;;4.43;1.90;;;;;;;;;;5065185;28;20032;-28
2021/12/01 05:40:49;;;;;;;6.10;1.80;;;;;;;;;;5064094;28;20463;-28
2021/12/01 05:43:15;;;;;;;6.43;1.70;;;;;;;;;;5064693;28;20032;-30
2021/12/01 05:45:41;;;;;;;4.70;2.00;;;;;;;;;;5045326;28;20036;-31
2021/12/01 05:48:06;;;;;;;7.00;1.90;;;;;;;;;;5079923;28;20032;-31
2021/12/01 05:50:32;;;;;;;4.68;1.48;;;;;;;;;;5083570;28;20032;-30
2021/12/01 05:52:58;;;;;;;3.45;1.80;;;;;;;;;;5083599;28;20482;-28
2021/12/01 05:55:24;;;;;;;2.75;1.25;;;;;;;;;;5083560;28;20115;-31
2021/12/01 05:57:50;;;;;;;2.55;1.65;;;;;;;;;;5083506;28;20124;-29
2021/12/01 06:00:16;;;;;;;5.07;1.98;;;;;;;;;;5084736;28;20016;-28
2021/12/01 06:02:48;;;;;;;5.97;1.92;;;;;;;;;;5084620;28;20092;-29
2021/12/01 06:05:14;;;;;;;2.40;1.77;;;;;;;;;;5084908;28;20031;-29
2021/12/01 06:07:39;;;;;;;2.50;1.75;;;;;;;;;;5084736;28;20028;-32
2021/12/01 06:10:05;;;;;;;2.13;1.38;;;;;;;;;;5084728;28;20461;-36
2021/12/01 06:12:32;;;;;;;1.90;1.48;;;;;;;;;;5086162;28;20016;-34
2021/12/01 06:14:59;;;;;;;2.47;1.50;;;;;;;;;;5088738;28;20036;-31
2021/12/01 06:17:26;;;;;;;2.50;1.50;;;;;;;;;;5088955;28;20028;-32
2021/12/01 06:19:53;;;;;;;2.85;1.30;;;;;;;;;;5088174;28;20064;-30
2021/12/01 06:22:19;;;;;;;4.47;1.50;;;;;;;;;;5088738;28;20405;-32
2021/12/01 06:24:45;;;;;;;1.90;1.42;;;;;;;;;;5072751;28;20032;-34
2021/12/01 06:27:12;;;;;;;4.10;1.48;;;;;;;;;;5068162;28;20083;-31
2021/12/01 06:29:38;;;;;;;4.55;1.55;;;;;;;;;;5068429;28;20048;-30
2021/12/01 06:32:08;;;;;;;5.68;1.88;;;;;;;;;;5065797;28;20111;-35
2021/12/01 06:34:34;;;;;;;5.45;1.55;;;;;;;;;;5065518;28;20063;-34
2021/12/01 06:37:00;;;;;;;4.82;1.67;;;;;;;;;;5068519;28;20039;-30
2021/12/01 06:39:26;;;;;;;4.05;1.40;;;;;;;;;;5068670;28;20029;-32
2021/12/01 06:41:54;;;;;;;1.48;1.20;;;;;;;;;;5067454;28;20111;-31
2021/12/01 06:44:20;;;;;;;2.97;1.60;;;;;;;;;;5081273;28;20099;-32
2021/12/01 06:46:46;;;;;;;4.57;1.80;;;;;;;;;;5063201;28;20032;-33
2021/12/01 06:49:12;;;;;;;5.28;1.60;;;;;;;;;;5059729;28;20036;-32
2021/12/01 06:51:37;;;;;;;2.63;1.25;;;;;;;;;;5047758;28;20032;-37
2021/12/01 06:54:04;;;;;;;2.80;1.40;;;;;;;;;;5066423;28;20041;-32
2021/12/01 06:56:29;;;;;;;2.85;1.38;;;;;;;;;;5068251;28;20566;-32
2021/12/01 06:58:55;;;;;;;2.40;1.48;;;;;;;;;;5065238;28;20024;-32
2021/12/01 07:01:20;;;;;;;1.42;1.10;;;;;;;;;;5075996;28;20059;-33
2021/12/01 07:03:46;;;;;;;3.67;1.40;;;;;;;;;;5050948;28;20068;-30
2021/12/01 07:06:11;;;;;;;4.10;1.70;;;;;;;;;;5045661;28;20029;-32
2021/12/01 07:08:38;;;;;;;2.70;1.45;;;;;;;;;;5051657;28;20486;-33
2021/12/01 07:11:04;;;;;;;5.78;1.75;;;;;;;;;;5061928;28;20079;-29
2021/12/01 07:13:32;;;;;;;2.97;1.38;;;;;;;;;;5064348;28;20028;-32
2021/12/01 07:15:58;;;;;;;3.90;1.67;;;;;;;;;;5064532;28;20031;-33
2021/12/01 07:18:23;;;;;;;3.30;1.40;;;;;;;;;;5046429;28;20028;-31
2021/12/01 07:20:49;;;;;;;3.08;1.15;;;;;;;;;;5064132;28;20078;-37
2021/12/01 07:23:14;;;;;;;2.28;1.52;;;;;;;;;;5061215;28;20038;-33
2021/12/01 07:25:40;;;;;;;1.55;0.93;;;;;;;;;;5044646;28;20037;-31
2021/12/01 07:28:06;;;;;;;7.50;1.70;;;;;;;;;;5044226;28;20075;-32
2021/12/01 07:30:32;;;;;;;3.67;1.42;;;;;;;;;;5044146;28;20040;-29
2021/12/01 07:32:58;;;;;;;2.53;1.50;;;;;;;;;;5044257;28;20039;-28
2021/12/01 07:35:23;;;;;;;2.05;1.35;;;;;;;;;;5044509;28;20037;-30
2021/12/01 07:37:49;;;;;;;2.20;1.55;;;;;;;;;;5043635;28;20488;-34
2021/12/01 07:40:16;;;;;;;5.07;1.40;;;;;;;;;;5043839;28;20040;-29
2021/12/01 07:42:41;;;;;;;2.47;1.58;;;;;;;;;;5043787;28;20676;-30
2021/12/01 07:45:07;;;;;;;4.68;1.58;;;;;;;;;;5059807;28;20032;-30
2021/12/01 07:47:33;;;;;;;1.98;1.40;;;;;;;;;;5075215;28;20074;-31
2021/12/01 07:49:58;;;;;;;2.67;1.58;;;;;;;;;;5080098;28;20025;-32
2021/12/01 07:52:24;;;;;;;1.88;1.33;;;;;;;;;;5046099;28;20031;-35
2021/12/01 07:54:49;;;;;;;1.75;1.25;;;;;;;;;;5063944;28;20037;-33
2021/12/01 07:57:15;;;;;;;2.80;1.83;;;;;;;;;;5069223;28;20024;-31
2021/12/01 07:59:41;;;;;;;4.22;1.50;;;;;;;;;;5064276;28;20477;-31
2021/12/01 08:02:06;;;;;;;4.22;1.50;;;;;;;;;;5063450;28;20033;-31
2021/12/01 08:04:32;;;;;;;4.15;1.20;;;;;;;;;;5070945;28;20032;-28
2021/12/01 08:06:58;;;;;;;1.90;1.55;;;;;;;;;;5046417;28;20418;-32
2021/12/01 08:09:24;;;;;;;4.05;1.75;;;;;;;;;;5048272;28;20028;-30
2021/12/01 08:11:50;;;;;;;2.58;1.52;;;;;;;;;;5048670;28;20105;-32
2021/12/01 08:14:16;;;;;;;1.80;1.40;;;;;;;;;;5067396;28;20032;-33
2021/12/01 08:16:41;;;;;;;2.05;1.42;;;;;;;;;;5063704;28;20119;-33
2021/12/01 08:19:07;;;;;;;2.10;1.60;;;;;;;;;;5071849;28;20043;-33
2021/12/01 08:21:32;;;;;;;4.43;1.42;;;;;;;;;;5045431;28;20025;-32
2021/12/01 08:23:58;;;;;;;2.25;1.35;;;;;;;;;;5062486;28;20086;-30
2021/12/01 08:26:24;;;;;;;3.70;1.70;;;;;;;;;;5063104;28;20107;-31
2021/12/01 08:28:49;;;;;;;1.38;1.10;;;;;;;;;;5062534;28;20041;-32
2021/12/01 08:31:15;;;;;;;2.42;1.63;;;;;;;;;;5043298;28;20605;-29
2021/12/01 08:33:41;;;;;;;2.70;1.63;;;;;;;;;;5043316;28;20522;-30
2021/12/01 08:36:07;;;;;;;2.17;1.58;;;;;;;;;;5055465;28;20115;-31
2021/12/01 08:38:33;;;;;;;2.17;1.58;;;;;;;;;;5043583;28;20112;-34
2021/12/01 08:40:59;;;;;;;1.58;1.20;;;;;;;;;;5043495;28;20029;-33
2021/12/01 08:43:24;;;;;;;1.52;1.33;;;;;;;;;;5053639;28;20510;-34
2021/12/01 08:45:50;;;;;;;1.85;1.40;;;;;;;;;;5062739;28;20352;-31
2021/12/01 08:48:15;;;;;;;2.00;1.48;;;;;;;;;;5063311;28;20056;-30
2021/12/01 08:50:41;;;;;;;2.00;1.52;;;;;;;;;;5054263;28;20021;-31
2021/12/01 08:53:07;;;;;;;2.20;1.50;;;;;;;;;;5061773;28;20145;-31
2021/12/01 08:55:32;;;;;;;3.40;1.70;;;;;;;;;;5061234;28;20095;-34
2021/12/01 08:57:58;;;;;;;2.50;1.50;;;;;;;;;;5057226;28;20036;-31
2021/12/01 09:00:23;;;;;;;3.03;1.55;;;;;;;;;;5062410;28;20031;-29
2021/12/01 09:02:49;;;;;;;2.40;1.50;;;;;;;;;;5062437;28;20016;-31
2021/12/01 09:05:14;;;;;;;1.67;1.40;;;;;;;;;;5063044;28;20032;-33
2021/12/01 09:07:40;;;;;;;1.92;1.40;;;;;;;;;;5067732;28;20149;-33
2021/12/01 09:10:06;;;;;;;2.70;1.52;;;;;;;;;;5055778;28;20058;-31
2021/12/01 09:12:32;;;;;;;2.05;1.30;;;;;;;;;;5062656;28;20052;-32
2021/12/01 09:14:57;;;;;;;1.83;1.35;;;;;;;;;;5063046;28;20482;-32
2021/12/01 09:17:24;;;;;;;2.03;1.50;;;;;;;;;;5063021;28;20030;-38
2021/12/01 09:19:49;;;;;;;2.38;1.75;;;;;;;;;;5061955;28;20032;-31
2021/12/01 09:22:16;;;;;;;1.73;1.40;;;;;;;;;;5068868;28;20482;-30
2021/12/01 09:24:42;;;;;;;3.58;1.60;;;;;;;;;;5041901;28;20016;-32
2021/12/01 09:27:08;;;;;;;1.85;1.30;;;;;;;;;;5065105;28;20080;-29
2021/12/01 09:29:34;;;;;;;1.80;1.33;;;;;;;;;;5054867;28;20036;-32
2021/12/01 09:31:59;;;;;;;2.55;1.50;;;;;;;;;;5063135;28;20546;-32
2021/12/01 09:34:25;;;;;;;2.17;1.20;;;;;;;;;;5058054;28;20032;-31
2021/12/01 09:36:51;;;;;;;1.98;1.10;;;;;;;;;;5052285;28;20033;-29
2021/12/01 09:39:16;;;;;;;2.10;1.50;;;;;;;;;;5060404;28;20107;-33
2021/12/01 09:41:42;;;;;;;2.33;1.70;;;;;;;;;;5054535;28;20098;-31
2021/12/01 09:44:08;;;;;;;3.28;1.65;;;;;;;;;;5059988;28;20039;-33
2021/12/01 09:46:33;;;;;;;1.90;1.48;;;;;;;;;;5059238;28;20044;-30
2021/12/01 09:48:59;;;;;;;2.03;1.40;;;;;;;;;;5028082;28;20032;-33
2021/12/01 09:51:24;;;;;;;2.20;1.20;;;;;;;;;;5046701;28;20044;-30
2021/12/01 09:53:50;;;;;;;1.52;1.38;;;;;;;;;;5046650;28;20654;-30
2021/12/01 09:56:16;;;;;;;2.97;1.52;;;;;;;;;;5028924;28;20029;-34
2021/12/01 09:58:43;;;;;;;2.25;1.40;;;;;;;;;;5046093;28;20032;-29
2021/12/01 10:01:12;;;;;;;2.70;1.70;;;;;;;;;;5064729;28;20028;-28
2021/12/01 10:03:38;;;;;;;2.35;1.85;;;;;;;;;;5066437;28;20037;-28
2021/12/01 10:06:13;;;;;;;1.80;1.42;;;;;;;;;;5062423;28;20131;-29
2021/12/01 10:08:52;;;;;;;1.92;1.35;;;;;;;;;;5046476;28;20850;-30
2021/12/01 10:11:23;;;;;;;1.60;1.30;;;;;;;;;;5046427;28;20033;-30
2021/12/01 10:13:57;;;;;;;3.20;1.60;;;;;;;;;;5046502;28;20034;-29
2021/12/01 10:16:27;;;;;;;3.20;1.70;;;;;;;;;;5046090;28;20031;-30
2021/12/01 10:18:54;;;;;;;1.80;1.33;;;;;;;;;;5046548;28;20036;-30
2021/12/01 10:21:46;;;;;;;2.90;1.77;;;;;;;;;;5072129;28;20070;-32
2021/12/01 10:24:20;;;;;;;2.17;1.50;;;;;;;;;;5058243;28;20060;-33
2021/12/01 10:26:52;;;;;;;2.00;1.30;;;;;;;;;;5065507;28;20048;-31
2021/12/01 10:29:31;;;;;;;1.85;1.58;;;;;;;;;;5066285;28;20483;-31
2021/12/01 10:31:59;;;;;;;4.00;1.30;;;;;;;;;;5064431;28;20579;-34
2021/12/01 10:34:36;;;;;;;2.38;1.85;;;;;;;;;;5065465;28;20482;-30
2021/12/01 10:37:09;;;;;;;4.53;2.08;;;;;;;;;;5047494;28;20025;-32
2021/12/01 10:39:35;;;;;;;;;;;;;;;;;;5046072;28;20040;-33
2021/12/01 10:42:09;;;;;;;3.35;2.45;;;;;;;;;;5069154;28;19920;-29
2021/12/01 10:44:35;;;;;;;3.55;1.83;;;;;;;;;;5080062;28;20024;-29
2021/12/01 10:47:09;;;;;;;3.25;1.92;;;;;;;;;;5085549;28;20035;-30
2021/12/01 10:49:40;;;;;;;2.78;1.80;;;;;;;;;;5085876;28;20412;-31
2021/12/01 10:52:07;;;;;;;3.67;1.90;;;;;;;;;;5086723;28;20031;-29
2021/12/01 10:54:33;;;;;;;2.78;1.88;;;;;;;;;;5061747;28;20025;-28
2021/12/01 10:57:18;;;;;;;2.53;1.63;;;;;;;;;;5077060;28;20094;-33
2021/12/01 10:59:48;;;;;;;2.63;1.63;;;;;;;;;;5085245;28;20059;-32
2021/12/01 11:02:15;;;;;;;2.42;1.58;;;;;;;;;;5090653;28;20028;-30
2021/12/01 11:04:42;;;;;;;3.20;1.92;;;;;;;;;;5080115;28;20476;-34
2021/12/01 11:07:26;;;;;;;2.80;1.90;;;;;;;;;;5065205;28;20442;-32
2021/12/01 11:10:15;;;;;;;3.22;2.15;;;;;;;;;;5080945;28;20489;-35
2021/12/01 11:12:41;;;;;;;2.45;1.90;;;;;;;;;;5085303;28;20109;-31
2021/12/01 11:15:45;;;;;;;2.58;1.88;;;;;;;;;;5089748;28;20036;-34
2021/12/01 11:18:17;;;;;;;2.60;1.73;;;;;;;;;;5008731;28;20051;-30
2021/12/01 11:20:50;;;;;;;2.55;2.08;;;;;;;;;;5082697;28;20143;-32
2021/12/01 11:23:19;;;;;;;2.22;1.77;;;;;;;;;;5083905;28;20575;-28
2021/12/01 11:26:08;;;;;;;3.05;2.00;;;;;;;;;;5084288;28;20032;-33
2021/12/01 11:28:38;;;;;;;2.95;1.90;;;;;;;;;;5074162;28;20099;-32
2021/12/01 11:31:07;;;;;;;2.97;2.00;;;;;;;;;;5084818;28;20040;-33
2021/12/01 11:33:33;;;;;;;3.97;2.40;;;;;;;;;;5085046;28;20169;-29
2021/12/01 11:36:05;;;;;;;3.40;2.03;;;;;;;;;;5084732;28;20107;-32
2021/12/01 11:38:32;;;;;;;3.47;2.30;;;;;;;;;;5080446;28;20123;-34
2021/12/01 11:40:58;;;;;;;2.60;1.92;;;;;;;;;;5092841;28;20074;-32
2021/12/01 11:43:25;;;;;;;2.95;2.00;;;;;;;;;;5084875;28;20511;-33
2021/12/01 11:45:51;;;;;;;3.25;2.03;;;;;;;;;;5070626;28;20505;-30
2021/12/01 11:48:21;;;;;;;2.80;1.85;;;;;;;;;;5064199;28;20044;-30
2021/12/01 11:51:01;;;;;;;2.75;2.08;;;;;;;;;;5030210;28;20395;-32
2021/12/01 11:53:34;;;;;;;3.28;2.20;;;;;;;;;;5046612;28;20029;-29
2021/12/01 11:56:14;;;;;;;2.97;2.13;;;;;;;;;;5047110;28;20028;-31
2021/12/01 11:58:59;;;;;;;3.33;2.40;;;;;;;;;;5068891;28;20032;-30
2021/12/01 12:01:24;;;;;;;2.80;2.20;;;;;;;;;;5074762;28;20024;-33
2021/12/01 12:03:52;;;;;;;3.15;2.10;;;;;;;;;;5079419;28;20031;-34
2021/12/01 12:06:24;;;;;;;2.63;2.15;;;;;;;;;;5084342;28;20043;-31
2021/12/01 12:08:59;;;;;;;2.25;1.77;;;;;;;;;;5082811;28;20036;-30
2021/12/01 12:11:41;;;;;;;2.85;2.30;;;;;;;;;;5075631;28;20712;-31
2021/12/01 12:14:08;;;;;;;2.88;2.30;;;;;;;;;;5083334;28;20028;-30
2021/12/01 12:16:34;;;;;;;3.55;2.47;;;;;;;;;;5099063;28;20050;-32
2021/12/01 12:18:59;;;;;;;3.65;2.03;;;;;;;;;;5073267;28;20032;-30
2021/12/01 12:21:36;;;;;;;3.60;2.65;;;;;;;;;;5084269;28;20447;-29
2021/12/01 12:24:04;;;;;;;2.72;2.10;;;;;;;;;;5071196;28;20029;-32
2021/12/01 12:26:34;;;;;;;3.33;2.08;;;;;;;;;;5063455;28;20040;-29
2021/12/01 12:29:01;;;;;;;2.72;2.20;;;;;;;;;;5064115;28;20071;-34
2021/12/01 12:31:27;;;;;;;3.80;2.28;;;;;;;;;;5064997;28;20033;-30
2021/12/01 12:33:55;;;;;;;3.15;2.55;;;;;;;;;;5064009;28;20028;-38
2021/12/01 12:36:44;;;;;;;2.90;2.00;;;;;;;;;;5068535;28;20043;-36
2021/12/01 12:39:15;;;;;;;3.05;2.40;;;;;;;;;;5083948;28;20093;-32
2021/12/01 12:41:56;;;;;;;5.03;2.45;;;;;;;;;;5082862;28;20085;-29
2021/12/01 12:44:43;;;;;;;3.33;2.20;;;;;;;;;;5069244;28;20032;-31
2021/12/01 12:47:12;;;;;;;3.28;2.30;;;;;;;;;;5086905;28;20216;-31
2021/12/01 12:49:40;;;;;;;4.60;2.67;;;;;;;;;;5074858;28;20077;-34
2021/12/01 12:52:24;;;;;;;3.78;2.58;;;;;;;;;;5083966;28;20118;-32
2021/12/01 12:54:53;;;;;;;3.53;2.22;;;;;;;;;;5081208;28;20093;-31
2021/12/01 12:57:19;;;;;;;3.55;2.38;;;;;;;;;;5083334;28;20086;-30
2021/12/01 12:59:45;;;;;;;4.45;2.78;;;;;;;;;;5064576;28;20138;-34
2021/12/01 13:02:10;;;;;;;3.40;2.00;;;;;;;;;;5082434;28;20059;-30
2021/12/01 13:04:49;;;;;;;3.85;2.33;;;;;;;;;;5083520;28;20115;-30
2021/12/01 13:07:33;;;;;;;4.55;2.20;;;;;;;;;;5083083;28;20035;-31
2021/12/01 13:10:23;;;;;;;3.75;2.25;;;;;;;;;;5082178;28;20509;-33
2021/12/01 13:12:49;;;;;;;3.20;2.38;;;;;;;;;;5063757;28;20049;-35
2021/12/01 13:15:23;;;;;;;3.25;2.55;;;;;;;;;;5065426;28;20475;-32
2021/12/01 13:17:54;;;;;;;3.60;2.40;;;;;;;;;;5075998;28;20024;-31
2021/12/01 13:20:20;;;;;;;3.60;2.40;;;;;;;;;;5082935;28;20494;-32
2021/12/01 13:23:05;;;;;;;3.55;2.25;;;;;;;;;;5081847;28;20239;-29
2021/12/01 13:25:30;;;;;;;4.40;2.58;;;;;;;;;;5082435;28;20032;-33
2021/12/01 13:27:56;;;;;;;3.45;2.15;;;;;;;;;;5082286;28;20101;-35
2021/12/01 13:30:22;;;;;;;3.15;2.40;;;;;;;;;;5083200;28;20028;-29
2021/12/01 13:33:11;;;;;;;2.95;2.22;;;;;;;;;;5082244;28;20715;-29
2021/12/01 13:35:36;;;;;;;39.30;2.90;;;;;;;;;;5083074;28;20401;-32
2021/12/01 13:38:02;;;;;;;3.75;2.40;;;;;;;;;;5080669;28;20028;-31
2021/12/01 13:40:28;;;;;;;7.32;2.72;;;;;;;;;;5071865;28;20526;-32
2021/12/01 13:42:53;;;;;;;5.45;2.13;;;;;;;;;;5062177;28;20040;-30
2021/12/01 13:45:19;;;;;;;8.57;2.40;;;;;;;;;;5057879;28;20032;-31
2021/12/01 13:47:44;;;;;;;5.80;2.47;;;;;;;;;;5047638;28;20108;-33
2021/12/01 13:50:10;;;;;;;4.22;2.60;;;;;;;;;;5062408;28;20039;-31
2021/12/01 13:52:45;;;;;;;4.32;2.42;;;;;;;;;;5050453;28;20046;-32
2021/12/01 13:55:22;;;;;;;5.65;2.55;;;;;;;;;;5081078;28;20514;-28
2021/12/01 13:58:15;;;;;;;3.05;2.08;;;;;;;;;;5076753;28;20036;-34
2021/12/01 14:00:41;;;;;;;4.87;2.53;;;;;;;;;;5060645;28;20052;-32
2021/12/01 14:03:08;;;;;;;3.42;2.20;;;;;;;;;;5082532;28;20537;-31
2021/12/01 14:05:34;;;;;;;3.53;2.42;;;;;;;;;;5079654;28;20077;-31
2021/12/01 14:08:08;;;;;;;4.38;2.65;;;;;;;;;;5082340;28;20406;-30
2021/12/01 14:10:42;;;;;;;6.00;3.42;;;;;;;;;;5086817;28;20036;-32
2021/12/01 14:13:07;;;;;;;4.57;3.58;;;;;;;;;;5070193;28;20085;-29
2021/12/01 14:15:37;;;;;;;7.00;3.75;;;;;;;;;;5081402;28;20542;-30
2021/12/01 14:18:02;;;;;;;4.38;3.17;;;;;;;;;;5048327;28;20037;-31
2021/12/01 14:20:28;;;;;;;7.93;3.58;;;;;;;;;;5072815;28;20036;-34
2021/12/01 14:22:54;;;;;;;6.50;3.90;;;;;;;;;;5071981;28;20135;-32
2021/12/01 14:25:22;;;;;;;5.20;3.85;;;;;;;;;;5069354;28;20043;-34
2021/12/01 14:28:00;;;;;;;5.07;3.55;;;;;;;;;;5079726;28;20051;-30
2021/12/01 14:30:25;;;;;;;5.43;3.50;;;;;;;;;;5072565;28;20118;-31
2021/12/01 14:32:52;;;;;;;5.18;3.72;;;;;;;;;;5081072;28;20049;-33
2021/12/01 14:35:20;;;;;;;4.93;3.72;;;;;;;;;;5084851;28;20028;-29
2021/12/01 14:37:45;;;;;;;4.97;3.80;;;;;;;;;;5081371;28;20036;-32
2021/12/01 14:40:16;;;;;;;6.93;3.83;;;;;;;;;;5085565;28;20031;-29
2021/12/01 14:42:47;;;;;;;6.80;3.70;;;;;;;;;;5085064;28;20034;-32
2021/12/01 14:45:13;;;;;;;5.53;3.50;;;;;;;;;;5080914;28;20048;-32
2021/12/01 14:47:39;;;;;;;4.72;3.28;;;;;;;;;;5066055;28;20375;-29
2021/12/01 14:50:05;;;;;;;4.38;3.20;;;;;;;;;;5066109;28;20028;-32